sensor_id;sensor_type;location;lat;lon;timestamp;pressure;altitude;pressure_sealevel;temperature;humidity
51715;BME280;39115;59.332;18.034;2023-10-08T00:01:32;100731.06;;;11.33;56.31
51715;BME280;39115;59.332;18.034;2023-10-08T00:03:54;100731.22;;;11.31;55.77
51715;BME280;39115;59.332;18.034;2023-10-08T00:06:19;100734.97;;;11.29;56.12
51715;BME280;39115;59.332;18.034;2023-10-08T00:08:41;100739.63;;;11.27;55.89
51715;BME280;39115;59.332;18.034;2023-10-08T00:11:02;100747.75;;;11.25;56.11
51715;BME280;39115;59.332;18.034;2023-10-08T00:13:32;100743.53;;;11.22;56.34
51715;BME280;39115;59.332;18.034;2023-10-08T00:16:00;100747.31;;;11.20;55.79
51715;BME280;39115;59.332;18.034;2023-10-08T00:18:22;100758.13;;;11.18;56.01
51715;BME280;39115;59.332;18.034;2023-10-08T00:20:43;100748.44;;;11.17;55.91
51715;BME280;39115;59.332;18.034;2023-10-08T00:23:09;100754.03;;;11.14;56.06
51715;BME280;39115;59.332;18.034;2023-10-08T00:25:31;100755.88;;;11.14;55.87
51715;BME280;39115;59.332;18.034;2023-10-08T00:27:54;100750.81;;;11.11;55.75
51715;BME280;39115;59.332;18.034;2023-10-08T00:30:14;100755.44;;;11.08;55.79
51715;BME280;39115;59.332;18.034;2023-10-08T00:32:38;100753.06;;;11.05;56.07
51715;BME280;39115;59.332;18.034;2023-10-08T00:34:58;100759.38;;;11.04;56.04
51715;BME280;39115;59.332;18.034;2023-10-08T00:37:19;100763.97;;;11.02;55.93
51715;BME280;39115;59.332;18.034;2023-10-08T00:39:44;100759.78;;;11.00;56.23
51715;BME280;39115;59.332;18.034;2023-10-08T00:42:06;100758.94;;;10.99;55.97
51715;BME280;39115;59.332;18.034;2023-10-08T00:44:28;100762.69;;;10.97;56.00
51715;BME280;39115;59.332;18.034;2023-10-08T00:46:59;100746.03;;;10.95;56.27
51715;BME280;39115;59.332;18.034;2023-10-08T00:49:24;100763.13;;;10.92;56.26
51715;BME280;39115;59.332;18.034;2023-10-08T00:51:56;100754.44;;;10.90;55.90
51715;BME280;39115;59.332;18.034;2023-10-08T00:54:42;100776.84;;;10.87;56.17
51715;BME280;39115;59.332;18.034;2023-10-08T00:57:28;100770.97;;;10.84;56.16
51715;BME280;39115;59.332;18.034;2023-10-08T00:59:50;100765.75;;;10.82;56.26
51715;BME280;39115;59.332;18.034;2023-10-08T01:02:14;100766.03;;;10.79;55.77
51715;BME280;39115;59.332;18.034;2023-10-08T01:04:40;100763.38;;;10.79;56.31
51715;BME280;39115;59.332;18.034;2023-10-08T01:07:04;100767.16;;;10.77;55.91
51715;BME280;39115;59.332;18.034;2023-10-08T01:09:36;100763.94;;;10.73;56.26
51715;BME280;39115;59.332;18.034;2023-10-08T01:12:11;100752.41;;;10.72;55.88
51715;BME280;39115;59.332;18.034;2023-10-08T01:14:44;100769.50;;;10.70;56.54
51715;BME280;39115;59.332;18.034;2023-10-08T01:17:06;100766.28;;;10.66;56.30
51715;BME280;39115;59.332;18.034;2023-10-08T01:19:27;100768.06;;;10.66;55.77
51715;BME280;39115;59.332;18.034;2023-10-08T01:21:48;100775.38;;;10.64;56.19
51715;BME280;39115;59.332;18.034;2023-10-08T01:24:08;100772.00;;;10.62;56.31
51715;BME280;39115;59.332;18.034;2023-10-08T01:26:35;100780.13;;;10.60;56.25
51715;BME280;39115;59.332;18.034;2023-10-08T01:28:59;100783.91;;;10.57;55.87
51715;BME280;39115;59.332;18.034;2023-10-08T01:31:24;100782.22;;;10.56;56.19
51715;BME280;39115;59.332;18.034;2023-10-08T01:33:44;100781.50;;;10.54;56.16
51715;BME280;39115;59.332;18.034;2023-10-08T01:36:10;100778.13;;;10.52;55.94
51715;BME280;39115;59.332;18.034;2023-10-08T01:38:33;100767.63;;;10.51;55.72
51715;BME280;39115;59.332;18.034;2023-10-08T01:40:53;100786.38;;;10.49;56.18
51715;BME280;39115;59.332;18.034;2023-10-08T01:43:17;100781.31;;;10.46;56.21
51715;BME280;39115;59.332;18.034;2023-10-08T01:45:38;100782.28;;;10.45;56.01
51715;BME280;39115;59.332;18.034;2023-10-08T01:48:03;100775.56;;;10.41;56.09
51715;BME280;39115;59.332;18.034;2023-10-08T01:50:24;100772.91;;;10.41;56.11
51715;BME280;39115;59.332;18.034;2023-10-08T01:52:50;100777.50;;;10.39;56.14
51715;BME280;39115;59.332;18.034;2023-10-08T01:55:13;100776.78;;;10.37;56.53
51715;BME280;39115;59.332;18.034;2023-10-08T01:57:39;100786.69;;;10.35;56.00
51715;BME280;39115;59.332;18.034;2023-10-08T02:00:00;100797.47;;;10.33;55.53
51715;BME280;39115;59.332;18.034;2023-10-08T02:02:21;100786.09;;;10.31;56.17
51715;BME280;39115;59.332;18.034;2023-10-08T02:04:42;100786.25;;;10.29;55.51
51715;BME280;39115;59.332;18.034;2023-10-08T02:07:04;100792.69;;;10.27;56.50
51715;BME280;39115;59.332;18.034;2023-10-08T02:09:28;100798.97;;;10.26;55.73
51715;BME280;39115;59.332;18.034;2023-10-08T02:11:49;100805.25;;;10.25;55.98
51715;BME280;39115;59.332;18.034;2023-10-08T02:14:13;100814.34;;;10.22;56.01
51715;BME280;39115;59.332;18.034;2023-10-08T02:16:35;100807.34;;;10.21;56.24
51715;BME280;39115;59.332;18.034;2023-10-08T02:18:57;100807.63;;;10.18;55.56
51715;BME280;39115;59.332;18.034;2023-10-08T02:21:18;100806.91;;;10.16;55.97
51715;BME280;39115;59.332;18.034;2023-10-08T02:23:39;100822.00;;;10.16;56.00
51715;BME280;39115;59.332;18.034;2023-10-08T02:25:59;100823.97;;;10.13;56.31
51715;BME280;39115;59.332;18.034;2023-10-08T02:28:20;100817.91;;;10.11;56.06
51715;BME280;39115;59.332;18.034;2023-10-08T02:30:42;100826.88;;;10.10;56.13
51715;BME280;39115;59.332;18.034;2023-10-08T02:33:03;100828.81;;;10.08;55.97
51715;BME280;39115;59.332;18.034;2023-10-08T02:35:23;100817.47;;;10.06;55.94
51715;BME280;39115;59.332;18.034;2023-10-08T02:37:44;100815.78;;;10.05;55.96
51715;BME280;39115;59.332;18.034;2023-10-08T02:40:07;100824.88;;;10.03;56.19
51715;BME280;39115;59.332;18.034;2023-10-08T02:42:39;100833.81;;;10.02;55.96
51715;BME280;39115;59.332;18.034;2023-10-08T02:45:02;100833.09;;;10.00;55.79
51715;BME280;39115;59.332;18.034;2023-10-08T02:47:24;100824.41;;;9.97;55.63
51715;BME280;39115;59.332;18.034;2023-10-08T02:49:45;100831.53;;;9.97;55.78
51715;BME280;39115;59.332;18.034;2023-10-08T02:52:08;100837.97;;;9.94;55.98
51715;BME280;39115;59.332;18.034;2023-10-08T02:54:29;100838.06;;;9.93;56.37
51715;BME280;39115;59.332;18.034;2023-10-08T02:56:56;100847.88;;;9.92;56.40
51715;BME280;39115;59.332;18.034;2023-10-08T02:59:28;100848.97;;;9.90;56.13
51715;BME280;39115;59.332;18.034;2023-10-08T03:01:51;100858.91;;;9.88;56.14
51715;BME280;39115;59.332;18.034;2023-10-08T03:04:16;100849.22;;;9.87;56.40
51715;BME280;39115;59.332;18.034;2023-10-08T03:06:40;100850.34;;;9.84;56.18
51715;BME280;39115;59.332;18.034;2023-10-08T03:09:01;100861.94;;;9.83;56.17
51715;BME280;39115;59.332;18.034;2023-10-08T03:11:24;100846.13;;;9.81;56.02
51715;BME280;39115;59.332;18.034;2023-10-08T03:13:46;100851.53;;;9.80;56.10
51715;BME280;39115;59.332;18.034;2023-10-08T03:16:07;100849.88;;;9.79;56.27
51715;BME280;39115;59.332;18.034;2023-10-08T03:18:33;100853.63;;;9.76;56.09
51715;BME280;39115;59.332;18.034;2023-10-08T03:20:57;100853.75;;;9.75;56.54
51715;BME280;39115;59.332;18.034;2023-10-08T03:23:23;100861.00;;;9.73;56.10
51715;BME280;39115;59.332;18.034;2023-10-08T03:25:45;100856.69;;;9.72;56.22
51715;BME280;39115;59.332;18.034;2023-10-08T03:28:08;100856.78;;;9.70;55.79
51715;BME280;39115;59.332;18.034;2023-10-08T03:30:29;100866.69;;;9.68;56.40
51715;BME280;39115;59.332;18.034;2023-10-08T03:32:50;100862.38;;;9.67;56.22
51715;BME280;39115;59.332;18.034;2023-10-08T03:35:16;100861.66;;;9.65;56.12
51715;BME280;39115;59.332;18.034;2023-10-08T03:37:47;100878.69;;;9.62;56.46
51715;BME280;39115;59.332;18.034;2023-10-08T03:40:11;100880.50;;;9.62;55.88
51715;BME280;39115;59.332;18.034;2023-10-08T03:43:02;100881.59;;;9.59;56.14
51715;BME280;39115;59.332;18.034;2023-10-08T03:45:36;100884.38;;;9.58;55.66
51715;BME280;39115;59.332;18.034;2023-10-08T03:48:08;100888.13;;;9.55;56.28
51715;BME280;39115;59.332;18.034;2023-10-08T03:50:36;100891.84;;;9.53;56.11
51715;BME280;39115;59.332;18.034;2023-10-08T03:53:03;100890.19;;;9.52;55.95
51715;BME280;39115;59.332;18.034;2023-10-08T03:55:24;100887.63;;;9.50;56.19
51715;BME280;39115;59.332;18.034;2023-10-08T03:57:47;100899.22;;;9.49;55.74
51715;BME280;39115;59.332;18.034;2023-10-08T04:00:17;100899.38;;;9.47;56.05
51715;BME280;39115;59.332;18.034;2023-10-08T04:02:49;100908.44;;;9.45;56.10
51715;BME280;39115;59.332;18.034;2023-10-08T04:05:28;100911.22;;;9.43;56.13
51715;BME280;39115;59.332;18.034;2023-10-08T04:07:53;100921.97;;;9.42;56.00
51715;BME280;39115;59.332;18.034;2023-10-08T04:10:20;100913.16;;;9.41;56.33
51715;BME280;39115;59.332;18.034;2023-10-08T04:12:58;100915.94;;;9.40;56.34
51715;BME280;39115;59.332;18.034;2023-10-08T04:15:19;100921.34;;;9.38;55.64
51715;BME280;39115;59.332;18.034;2023-10-08T04:17:40;100916.19;;;9.37;56.39
51715;BME280;39115;59.332;18.034;2023-10-08T04:20:13;100931.38;;;9.34;55.75
51715;BME280;39115;59.332;18.034;2023-10-08T04:22:52;100939.47;;;9.33;56.35
51715;BME280;39115;59.332;18.034;2023-10-08T04:25:13;100933.44;;;9.31;56.02
51715;BME280;39115;59.332;18.034;2023-10-08T04:27:34;100946.72;;;9.31;56.17
51715;BME280;39115;59.332;18.034;2023-10-08T04:29:54;100948.53;;;9.30;55.98
51715;BME280;39115;59.332;18.034;2023-10-08T04:32:15;100939.00;;;9.28;56.34
51715;BME280;39115;59.332;18.034;2023-10-08T04:34:43;100943.47;;;9.27;56.29
51715;BME280;39115;59.332;18.034;2023-10-08T04:37:07;100964.00;;;9.25;56.49
51715;BME280;39115;59.332;18.034;2023-10-08T04:39:33;100974.75;;;9.24;56.29
51715;BME280;39115;59.332;18.034;2023-10-08T04:41:54;100977.53;;;9.22;56.07
51715;BME280;39115;59.332;18.034;2023-10-08T04:44:15;100977.66;;;9.21;56.15
51715;BME280;39115;59.332;18.034;2023-10-08T04:46:36;100971.47;;;9.20;56.31
51715;BME280;39115;59.332;18.034;2023-10-08T04:49:00;100989.34;;;9.18;55.78
51715;BME280;39115;59.332;18.034;2023-10-08T04:51:25;100977.16;;;9.15;56.17
51715;BME280;39115;59.332;18.034;2023-10-08T04:53:46;100992.25;;;9.15;55.84
51715;BME280;39115;59.332;18.034;2023-10-08T04:56:08;100989.72;;;9.13;56.11
51715;BME280;39115;59.332;18.034;2023-10-08T04:58:38;100992.47;;;9.12;56.14
51715;BME280;39115;59.332;18.034;2023-10-08T05:01:00;100987.28;;;9.10;56.15
51715;BME280;39115;59.332;18.034;2023-10-08T05:03:38;101011.31;;;9.09;56.02
51715;BME280;39115;59.332;18.034;2023-10-08T05:06:09;101008.75;;;9.07;56.13
51715;BME280;39115;59.332;18.034;2023-10-08T05:08:44;101006.25;;;9.06;56.13
51715;BME280;39115;59.332;18.034;2023-10-08T05:11:08;101010.81;;;9.04;55.87
51715;BME280;39115;59.332;18.034;2023-10-08T05:13:47;101019.66;;;9.04;56.00
51715;BME280;39115;59.332;18.034;2023-10-08T05:16:26;101015.41;;;9.01;56.16
51715;BME280;39115;59.332;18.034;2023-10-08T05:19:20;101030.63;;;8.99;56.29
51715;BME280;39115;59.332;18.034;2023-10-08T05:21:59;101024.69;;;8.96;56.11
51715;BME280;39115;59.332;18.034;2023-10-08T05:24:38;101018.53;;;8.95;56.12
51715;BME280;39115;59.332;18.034;2023-10-08T05:27:01;101038.94;;;8.95;55.91
51715;BME280;39115;59.332;18.034;2023-10-08T05:29:41;101038.19;;;8.93;56.20
51715;BME280;39115;59.332;18.034;2023-10-08T05:32:33;101049.69;;;8.93;56.07
51715;BME280;39115;59.332;18.034;2023-10-08T05:35:12;101055.19;;;8.90;55.76
51715;BME280;39115;59.332;18.034;2023-10-08T05:38:16;101047.38;;;8.89;55.78
51715;BME280;39115;59.332;18.034;2023-10-08T05:40:43;101054.59;;;8.86;56.38
51715;BME280;39115;59.332;18.034;2023-10-08T05:43:19;101065.22;;;8.86;56.25
51715;BME280;39115;59.332;18.034;2023-10-08T05:45:57;101075.09;;;8.84;55.98
51715;BME280;39115;59.332;18.034;2023-10-08T05:48:38;101076.91;;;8.84;56.05
51715;BME280;39115;59.332;18.034;2023-10-08T05:51:08;101081.47;;;8.82;56.15
51715;BME280;39115;59.332;18.034;2023-10-08T05:53:44;101081.69;;;8.79;56.29
51715;BME280;39115;59.332;18.034;2023-10-08T05:56:05;101085.22;;;8.79;55.98
51715;BME280;39115;59.332;18.034;2023-10-08T05:58:36;101082.69;;;8.78;55.74
51715;BME280;39115;59.332;18.034;2023-10-08T06:01:06;101099.56;;;8.77;56.19
51715;BME280;39115;59.332;18.034;2023-10-08T06:03:29;101100.53;;;8.76;56.59
51715;BME280;39115;59.332;18.034;2023-10-08T06:05:52;101104.97;;;8.75;55.89
51715;BME280;39115;59.332;18.034;2023-10-08T06:08:29;101107.75;;;8.74;56.34
51715;BME280;39115;59.332;18.034;2023-10-08T06:11:09;101120.19;;;8.73;56.18
51715;BME280;39115;59.332;18.034;2023-10-08T06:13:47;101116.66;;;8.73;55.98
51715;BME280;39115;59.332;18.034;2023-10-08T06:16:15;101116.91;;;8.69;56.13
51715;BME280;39115;59.332;18.034;2023-10-08T06:18:51;101123.06;;;8.70;56.28
51715;BME280;39115;59.332;18.034;2023-10-08T06:21:12;101128.47;;;8.68;56.11
51715;BME280;39115;59.332;18.034;2023-10-08T06:23:37;101137.41;;;8.67;55.93
51715;BME280;39115;59.332;18.034;2023-10-08T06:25:58;101133.91;;;8.67;56.19
51715;BME280;39115;59.332;18.034;2023-10-08T06:28:26;101140.19;;;8.66;56.14
51715;BME280;39115;59.332;18.034;2023-10-08T06:30:48;101137.53;;;8.66;55.77
51715;BME280;39115;59.332;18.034;2023-10-08T06:33:10;101142.09;;;8.64;56.00
51715;BME280;39115;59.332;18.034;2023-10-08T06:35:30;101148.34;;;8.63;56.15
51715;BME280;39115;59.332;18.034;2023-10-08T06:37:53;101151.13;;;8.61;55.67
51715;BME280;39115;59.332;18.034;2023-10-08T06:40:20;101155.56;;;8.61;56.08
51715;BME280;39115;59.332;18.034;2023-10-08T06:42:58;101148.56;;;8.60;56.09
51715;BME280;39115;59.332;18.034;2023-10-08T06:45:23;101156.66;;;8.58;55.83
51715;BME280;39115;59.332;18.034;2023-10-08T06:47:48;101169.06;;;8.58;56.09
51715;BME280;39115;59.332;18.034;2023-10-08T06:50:09;101157.72;;;8.56;55.87
51715;BME280;39115;59.332;18.034;2023-10-08T06:52:35;101168.34;;;8.56;56.04
51715;BME280;39115;59.332;18.034;2023-10-08T06:54:56;101165.69;;;8.56;56.15
51715;BME280;39115;59.332;18.034;2023-10-08T06:57:17;101163.97;;;8.54;56.35
51715;BME280;39115;59.332;18.034;2023-10-08T06:59:40;101171.09;;;8.54;55.92
51715;BME280;39115;59.332;18.034;2023-10-08T07:02:02;101163.97;;;8.54;56.12
51715;BME280;39115;59.332;18.034;2023-10-08T07:04:23;101175.56;;;8.53;56.18
51715;BME280;39115;59.332;18.034;2023-10-08T07:06:44;101176.41;;;8.54;56.45
51715;BME280;39115;59.332;18.034;2023-10-08T07:09:07;101180.97;;;8.52;56.18
51715;BME280;39115;59.332;18.034;2023-10-08T07:11:50;101192.44;;;8.52;56.07
51715;BME280;39115;59.332;18.034;2023-10-08T07:14:14;101192.44;;;8.52;55.94
51715;BME280;39115;59.332;18.034;2023-10-08T07:16:35;101197.03;;;8.50;56.20
51715;BME280;39115;59.332;18.034;2023-10-08T07:18:56;101199.66;;;8.50;56.00
51715;BME280;39115;59.332;18.034;2023-10-08T07:21:23;101205.81;;;8.51;56.08
51715;BME280;39115;59.332;18.034;2023-10-08T07:23:49;101219.06;;;8.51;56.03
51715;BME280;39115;59.332;18.034;2023-10-08T07:26:26;101219.06;;;8.51;56.28
51715;BME280;39115;59.332;18.034;2023-10-08T07:28:56;101227.03;;;8.51;56.33
51715;BME280;39115;59.332;18.034;2023-10-08T07:31:18;101227.03;;;8.51;55.99
51715;BME280;39115;59.332;18.034;2023-10-08T07:33:43;101242.00;;;8.52;56.28
51715;BME280;39115;59.332;18.034;2023-10-08T07:36:04;101246.34;;;8.53;55.95
51715;BME280;39115;59.332;18.034;2023-10-08T07:38:32;101242.75;;;8.54;56.20
51715;BME280;39115;59.332;18.034;2023-10-08T07:40:55;101249.75;;;8.55;56.33
51715;BME280;39115;59.332;18.034;2023-10-08T07:43:16;101245.28;;;8.56;56.36
51715;BME280;39115;59.332;18.034;2023-10-08T07:45:40;101268.34;;;8.55;56.23
51715;BME280;39115;59.332;18.034;2023-10-08T07:48:06;101258.44;;;8.57;56.13
51715;BME280;39115;59.332;18.034;2023-10-08T07:50:30;101262.78;;;8.58;56.00
51715;BME280;39115;59.332;18.034;2023-10-08T07:52:50;101279.66;;;8.57;56.19
51715;BME280;39115;59.332;18.034;2023-10-08T07:55:11;101269.81;;;8.59;56.21
51715;BME280;39115;59.332;18.034;2023-10-08T07:57:37;101267.03;;;8.61;56.14
51715;BME280;39115;59.332;18.034;2023-10-08T07:59:58;101269.59;;;8.62;56.12
51715;BME280;39115;59.332;18.034;2023-10-08T08:02:38;101283.69;;;8.63;55.88
51715;BME280;39115;59.332;18.034;2023-10-08T08:04:59;101266.81;;;8.64;56.02
51715;BME280;39115;59.332;18.034;2023-10-08T08:07:20;101274.66;;;8.65;56.28
51715;BME280;39115;59.332;18.034;2023-10-08T08:09:49;101283.50;;;8.66;55.97
51715;BME280;39115;59.332;18.034;2023-10-08T08:12:19;101275.41;;;8.67;55.95
51715;BME280;39115;59.332;18.034;2023-10-08T08:14:41;101277.13;;;8.68;55.95
51715;BME280;39115;59.332;18.034;2023-10-08T08:17:02;101280.59;;;8.69;56.02
51715;BME280;39115;59.332;18.034;2023-10-08T08:19:33;101284.94;;;8.70;55.79
51715;BME280;39115;59.332;18.034;2023-10-08T08:21:54;101278.69;;;8.71;55.80
51715;BME280;39115;59.332;18.034;2023-10-08T08:24:15;101282.09;;;8.73;56.20
51715;BME280;39115;59.332;18.034;2023-10-08T08:29:19;101292.59;;;8.75;55.64
51715;BME280;39115;59.332;18.034;2023-10-08T08:31:40;101295.13;;;8.76;55.82
51715;BME280;39115;59.332;18.034;2023-10-08T08:34:06;101301.31;;;8.77;55.74
51715;BME280;39115;59.332;18.034;2023-10-08T08:36:34;101314.47;;;8.78;56.39
51715;BME280;39115;59.332;18.034;2023-10-08T08:38:58;101317.00;;;8.80;56.04
51715;BME280;39115;59.332;18.034;2023-10-08T08:41:19;101330.19;;;8.81;55.77
51715;BME280;39115;59.332;18.034;2023-10-08T08:43:41;101315.09;;;8.82;56.13
51715;BME280;39115;59.332;18.034;2023-10-08T08:46:04;101321.97;;;8.84;55.84
51715;BME280;39115;59.332;18.034;2023-10-08T08:48:32;101318.38;;;8.85;55.80
51715;BME280;39115;59.332;18.034;2023-10-08T08:50:54;101333.34;;;8.86;56.10
51715;BME280;39115;59.332;18.034;2023-10-08T08:53:15;101327.91;;;8.88;56.34
51715;BME280;39115;59.332;18.034;2023-10-08T08:55:36;101334.81;;;8.91;55.95
51715;BME280;39115;59.332;18.034;2023-10-08T08:57:56;101337.38;;;8.92;55.90
51715;BME280;39115;59.332;18.034;2023-10-08T09:00:18;101352.22;;;8.95;56.15
51715;BME280;39115;59.332;18.034;2023-10-08T09:02:40;101336.19;;;8.96;55.97
51715;BME280;39115;59.332;18.034;2023-10-08T09:05:00;101336.19;;;8.96;55.97
51715;BME280;39115;59.332;18.034;2023-10-08T09:07:34;101341.28;;;8.99;56.17
51715;BME280;39115;59.332;18.034;2023-10-08T09:09:57;101344.69;;;9.01;56.12
51715;BME280;39115;59.332;18.034;2023-10-08T09:12:17;101345.41;;;9.04;55.98
51715;BME280;39115;59.332;18.034;2023-10-08T09:14:38;101347.00;;;9.06;55.77
51715;BME280;39115;59.332;18.034;2023-10-08T09:17:00;101350.38;;;9.08;55.98
51715;BME280;39115;59.332;18.034;2023-10-08T09:19:21;101347.63;;;9.10;55.73
51715;BME280;39115;59.332;18.034;2023-10-08T09:24:25;101356.25;;;9.13;55.74
51715;BME280;39115;59.332;18.034;2023-10-08T09:26:46;101357.81;;;9.16;55.63
51715;BME280;39115;59.332;18.034;2023-10-08T09:29:11;101355.03;;;9.17;55.71
51715;BME280;39115;59.332;18.034;2023-10-08T09:31:32;101345.16;;;9.20;56.06
51715;BME280;39115;59.332;18.034;2023-10-08T09:33:56;101357.50;;;9.21;55.73
51715;BME280;39115;59.332;18.034;2023-10-08T09:36:16;101369.69;;;9.23;55.82
51715;BME280;39115;59.332;18.034;2023-10-08T09:38:38;101370.44;;;9.25;55.77
51715;BME280;39115;59.332;18.034;2023-10-08T09:40:59;101380.00;;;9.28;56.01
51715;BME280;39115;59.332;18.034;2023-10-08T09:43:23;101371.91;;;9.29;56.23
51715;BME280;39115;59.332;18.034;2023-10-08T09:45:47;101374.34;;;9.32;55.85
51715;BME280;39115;59.332;18.034;2023-10-08T09:48:16;101386.56;;;9.35;55.77
51715;BME280;39115;59.332;18.034;2023-10-08T09:50:40;101392.59;;;9.37;55.72
51715;BME280;39115;59.332;18.034;2023-10-08T09:53:06;101392.38;;;9.40;56.15
51715;BME280;39115;59.332;18.034;2023-10-08T09:55:31;101386.41;;;9.49;56.28
51715;BME280;39115;59.332;18.034;2023-10-08T09:57:51;101390.47;;;9.67;56.30
51715;BME280;39115;59.332;18.034;2023-10-08T10:00:12;101400.25;;;9.90;55.64
51715;BME280;39115;59.332;18.034;2023-10-08T10:02:39;101400.13;;;10.16;55.39
51715;BME280;39115;59.332;18.034;2023-10-08T10:04:59;101408.81;;;10.42;56.10
51715;BME280;39115;59.332;18.034;2023-10-08T10:07:21;101415.50;;;10.71;55.56
51715;BME280;39115;59.332;18.034;2023-10-08T10:09:46;101413.34;;;10.99;55.38
51715;BME280;39115;59.332;18.034;2023-10-08T10:12:11;101412.00;;;11.27;55.57
51715;BME280;39115;59.332;18.034;2023-10-08T10:14:41;101415.06;;;11.55;55.41
51715;BME280;39115;59.332;18.034;2023-10-08T10:17:17;101421.66;;;11.83;55.25
51715;BME280;39115;59.332;18.034;2023-10-08T10:19:41;101410.56;;;12.11;55.18
51715;BME280;39115;59.332;18.034;2023-10-08T10:22:10;101410.03;;;12.38;54.80
51715;BME280;39115;59.332;18.034;2023-10-08T10:24:38;101407.81;;;12.64;54.71
51715;BME280;39115;59.332;18.034;2023-10-08T10:27:15;101404.84;;;12.89;54.51
51715;BME280;39115;59.332;18.034;2023-10-08T10:29:35;101421.53;;;13.12;54.18
51715;BME280;39115;59.332;18.034;2023-10-08T10:31:56;101414.16;;;13.35;54.27
51715;BME280;39115;59.332;18.034;2023-10-08T10:34:18;101423.69;;;13.59;54.09
51715;BME280;39115;59.332;18.034;2023-10-08T10:36:40;101420.75;;;13.82;53.74
51715;BME280;39115;59.332;18.034;2023-10-08T10:39:03;101416.09;;;14.03;53.72
51715;BME280;39115;59.332;18.034;2023-10-08T10:41:36;101420.19;;;14.27;53.72
51715;BME280;39115;59.332;18.034;2023-10-08T10:43:57;101418.16;;;14.49;53.62
51715;BME280;39115;59.332;18.034;2023-10-08T10:46:18;101427.03;;;14.69;53.39
51715;BME280;39115;59.332;18.034;2023-10-08T10:48:50;101429.38;;;14.92;53.28
51715;BME280;39115;59.332;18.034;2023-10-08T10:51:29;101438.88;;;15.14;52.75
51715;BME280;39115;59.332;18.034;2023-10-08T10:53:49;101430.72;;;15.33;53.13
51715;BME280;39115;59.332;18.034;2023-10-08T10:56:28;101433.16;;;15.55;52.52
51715;BME280;39115;59.332;18.034;2023-10-08T10:58:53;101444.75;;;15.73;52.45
51715;BME280;39115;59.332;18.034;2023-10-08T11:01:13;101451.88;;;15.92;52.30
51715;BME280;39115;59.332;18.034;2023-10-08T11:03:44;101458.94;;;16.11;52.22
51715;BME280;39115;59.332;18.034;2023-10-08T11:06:05;101453.69;;;16.28;52.17
51715;BME280;39115;59.332;18.034;2023-10-08T11:08:26;101458.19;;;16.46;51.90
51715;BME280;39115;59.332;18.034;2023-10-08T11:10:54;101453.78;;;16.63;51.77
51715;BME280;39115;59.332;18.034;2023-10-08T11:13:20;101461.81;;;16.81;51.61
51715;BME280;39115;59.332;18.034;2023-10-08T11:15:46;101458.25;;;16.98;51.68
51715;BME280;39115;59.332;18.034;2023-10-08T11:18:11;101460.84;;;17.16;51.51
51715;BME280;39115;59.332;18.034;2023-10-08T11:20:31;101467.13;;;17.33;51.40
51715;BME280;39115;59.332;18.034;2023-10-08T11:22:52;101468.22;;;17.49;51.16
51715;BME280;39115;59.332;18.034;2023-10-08T11:25:24;101465.41;;;17.67;51.25
51715;BME280;39115;59.332;18.034;2023-10-08T11:27:51;101477.91;;;17.84;51.05
51715;BME280;39115;59.332;18.034;2023-10-08T11:30:20;101477.97;;;18.01;51.14
51715;BME280;39115;59.332;18.034;2023-10-08T11:32:40;101472.59;;;18.17;50.88
51715;BME280;39115;59.332;18.034;2023-10-08T11:35:03;101477.13;;;18.33;50.75
51715;BME280;39115;59.332;18.034;2023-10-08T11:37:36;101474.44;;;18.50;50.75
51715;BME280;39115;59.332;18.034;2023-10-08T11:39:56;101475.25;;;18.67;50.53
51715;BME280;39115;59.332;18.034;2023-10-08T11:42:19;101488.06;;;18.82;50.63
51715;BME280;39115;59.332;18.034;2023-10-08T11:44:52;101487.03;;;18.99;50.49
51715;BME280;39115;59.332;18.034;2023-10-08T11:47:13;101491.72;;;19.14;50.31
51715;BME280;39115;59.332;18.034;2023-10-08T11:49:42;101493.03;;;19.26;50.16
51715;BME280;39115;59.332;18.034;2023-10-08T11:52:10;101490.78;;;19.38;50.05
51715;BME280;39115;59.332;18.034;2023-10-08T11:54:31;101500.19;;;19.50;50.03
51715;BME280;39115;59.332;18.034;2023-10-08T11:56:52;101492.34;;;19.64;49.96
51715;BME280;39115;59.332;18.034;2023-10-08T11:59:13;101489.94;;;19.77;49.90
51715;BME280;39115;59.332;18.034;2023-10-08T12:01:34;101490.22;;;19.90;49.94
51715;BME280;39115;59.332;18.034;2023-10-08T12:03:55;101496.88;;;20.03;49.78
51715;BME280;39115;59.332;18.034;2023-10-08T12:06:19;101507.09;;;20.16;49.68
51715;BME280;39115;59.332;18.034;2023-10-08T12:08:42;101509.00;;;20.30;49.61
51715;BME280;39115;59.332;18.034;2023-10-08T12:11:05;101507.56;;;20.43;49.71
51715;BME280;39115;59.332;18.034;2023-10-08T12:13:31;101509.66;;;20.56;49.49
51715;BME280;39115;59.332;18.034;2023-10-08T12:15:53;101499.25;;;20.67;49.20
51715;BME280;39115;59.332;18.034;2023-10-08T12:18:25;101511.53;;;20.78;48.97
51715;BME280;39115;59.332;18.034;2023-10-08T12:20:46;101507.72;;;20.88;49.23
51715;BME280;39115;59.332;18.034;2023-10-08T12:23:07;101502.84;;;20.98;49.01
51715;BME280;39115;59.332;18.034;2023-10-08T12:25:31;101496.53;;;21.06;49.01
51715;BME280;39115;59.332;18.034;2023-10-08T12:27:52;101505.00;;;21.03;48.98
51715;BME280;39115;59.332;18.034;2023-10-08T12:30:13;101503.88;;;20.97;48.77
51715;BME280;39115;59.332;18.034;2023-10-08T12:32:33;101506.66;;;20.89;48.69
51715;BME280;39115;59.332;18.034;2023-10-08T12:34:53;101511.31;;;20.80;49.02
51715;BME280;39115;59.332;18.034;2023-10-08T12:37:14;101515.09;;;20.70;49.12
51715;BME280;39115;59.332;18.034;2023-10-08T12:39:35;101507.25;;;20.61;49.20
51715;BME280;39115;59.332;18.034;2023-10-08T12:42:04;101522.06;;;20.50;49.11